sensor_id;sensor_type;location;lat;lon;timestamp;P1;durP1;ratioP1;P2;durP2;ratioP2
9364;SDS011;4722;49.340;9.800;2023-05-23T00:01:23;10.27;;;5.97;;
9364;SDS011;4722;49.340;9.800;2023-05-23T00:03:50;10.85;;;6.32;;
9364;SDS011;4722;49.340;9.800;2023-05-23T00:06:19;10.00;;;5.88;;
9364;SDS011;4722;49.340;9.800;2023-05-23T00:08:45;9.48;;;5.93;;
9364;SDS011;4722;49.340;9.800;2023-05-23T00:11:11;9.60;;;5.63;;
9364;SDS011;4722;49.340;9.800;2023-05-23T00:13:37;10.73;;;5.53;;
9364;SDS011;4722;49.340;9.800;2023-05-23T00:16:04;10.60;;;5.68;;
9364;SDS011;4722;49.340;9.800;2023-05-23T00:18:33;9.52;;;5.38;;
9364;SDS011;4722;49.340;9.800;2023-05-23T00:20:59;9.90;;;4.95;;
9364;SDS011;4722;49.340;9.800;2023-05-23T00:23:26;11.85;;;5.85;;
9364;SDS011;4722;49.340;9.800;2023-05-23T00:25:53;11.73;;;6.50;;
9364;SDS011;4722;49.340;9.800;2023-05-23T00:28:20;12.30;;;5.88;;
9364;SDS011;4722;49.340;9.800;2023-05-23T00:30:46;8.48;;;4.53;;
9364;SDS011;4722;49.340;9.800;2023-05-23T00:33:15;9.13;;;4.78;;
9364;SDS011;4722;49.340;9.800;2023-05-23T00:35:45;14.35;;;6.93;;
9364;SDS011;4722;49.340;9.800;2023-05-23T00:38:11;12.90;;;5.97;;
9364;SDS011;4722;49.340;9.800;2023-05-23T00:40:38;10.18;;;5.60;;
9364;SDS011;4722;49.340;9.800;2023-05-23T00:43:04;8.25;;;5.30;;
9364;SDS011;4722;49.340;9.800;2023-05-23T00:45:32;13.82;;;5.47;;
9364;SDS011;4722;49.340;9.800;2023-05-23T00:47:58;10.15;;;5.70;;
9364;SDS011;4722;49.340;9.800;2023-05-23T00:50:24;11.07;;;6.00;;
9364;SDS011;4722;49.340;9.800;2023-05-23T00:52:53;9.88;;;5.75;;
9364;SDS011;4722;49.340;9.800;2023-05-23T00:55:19;11.45;;;6.18;;
9364;SDS011;4722;49.340;9.800;2023-05-23T00:57:45;10.95;;;5.65;;
9364;SDS011;4722;49.340;9.800;2023-05-23T01:00:12;9.60;;;5.93;;
9364;SDS011;4722;49.340;9.800;2023-05-23T01:02:40;11.40;;;6.35;;
9364;SDS011;4722;49.340;9.800;2023-05-23T01:05:12;12.23;;;6.45;;
9364;SDS011;4722;49.340;9.800;2023-05-23T01:07:48;11.80;;;6.03;;
9364;SDS011;4722;49.340;9.800;2023-05-23T01:10:15;12.20;;;5.80;;
9364;SDS011;4722;49.340;9.800;2023-05-23T01:12:50;11.68;;;6.35;;
9364;SDS011;4722;49.340;9.800;2023-05-23T01:15:22;9.65;;;5.93;;
9364;SDS011;4722;49.340;9.800;2023-05-23T01:20:18;12.27;;;5.47;;
9364;SDS011;4722;49.340;9.800;2023-05-23T01:25:38;11.35;;;6.00;;
9364;SDS011;4722;49.340;9.800;2023-05-23T01:28:10;12.40;;;5.95;;
9364;SDS011;4722;49.340;9.800;2023-05-23T01:30:38;11.65;;;6.38;;
9364;SDS011;4722;49.340;9.800;2023-05-23T01:33:04;14.70;;;6.95;;
9364;SDS011;4722;49.340;9.800;2023-05-23T01:35:33;13.20;;;6.32;;
9364;SDS011;4722;49.340;9.800;2023-05-23T01:37:59;11.73;;;7.00;;
9364;SDS011;4722;49.340;9.800;2023-05-23T01:40:26;8.30;;;4.93;;
9364;SDS011;4722;49.340;9.800;2023-05-23T01:42:52;9.57;;;6.03;;
9364;SDS011;4722;49.340;9.800;2023-05-23T01:45:19;15.38;;;7.38;;
9364;SDS011;4722;49.340;9.800;2023-05-23T01:47:45;10.35;;;6.30;;
9364;SDS011;4722;49.340;9.800;2023-05-23T01:50:12;11.60;;;6.25;;
9364;SDS011;4722;49.340;9.800;2023-05-23T01:52:39;12.80;;;6.72;;
9364;SDS011;4722;49.340;9.800;2023-05-23T01:55:05;12.43;;;6.35;;
9364;SDS011;4722;49.340;9.800;2023-05-23T01:57:34;11.30;;;6.13;;
9364;SDS011;4722;49.340;9.800;2023-05-23T02:00:00;12.25;;;6.95;;
9364;SDS011;4722;49.340;9.800;2023-05-23T02:02:26;14.38;;;6.97;;
9364;SDS011;4722;49.340;9.800;2023-05-23T02:04:53;13.18;;;7.18;;
9364;SDS011;4722;49.340;9.800;2023-05-23T02:07:21;10.35;;;5.55;;
9364;SDS011;4722;49.340;9.800;2023-05-23T02:09:47;10.68;;;6.03;;
9364;SDS011;4722;49.340;9.800;2023-05-23T02:12:13;10.15;;;6.43;;
9364;SDS011;4722;49.340;9.800;2023-05-23T02:14:39;12.98;;;6.13;;
9364;SDS011;4722;49.340;9.800;2023-05-23T02:17:06;12.20;;;5.80;;
9364;SDS011;4722;49.340;9.800;2023-05-23T02:19:34;10.18;;;5.05;;
9364;SDS011;4722;49.340;9.800;2023-05-23T02:22:00;16.67;;;7.97;;
9364;SDS011;4722;49.340;9.800;2023-05-23T02:24:26;12.27;;;6.32;;
9364;SDS011;4722;49.340;9.800;2023-05-23T02:26:52;11.45;;;5.65;;
9364;SDS011;4722;49.340;9.800;2023-05-23T02:29:18;12.45;;;6.55;;
9364;SDS011;4722;49.340;9.800;2023-05-23T02:31:44;11.57;;;6.78;;
9364;SDS011;4722;49.340;9.800;2023-05-23T02:34:10;14.13;;;5.85;;
9364;SDS011;4722;49.340;9.800;2023-05-23T02:36:36;20.80;;;7.05;;
9364;SDS011;4722;49.340;9.800;2023-05-23T02:39:03;9.88;;;5.72;;
9364;SDS011;4722;49.340;9.800;2023-05-23T02:41:29;9.30;;;5.40;;
9364;SDS011;4722;49.340;9.800;2023-05-23T02:43:55;11.20;;;6.88;;
9364;SDS011;4722;49.340;9.800;2023-05-23T02:46:21;11.18;;;6.20;;
9364;SDS011;4722;49.340;9.800;2023-05-23T02:48:47;11.07;;;6.97;;
9364;SDS011;4722;49.340;9.800;2023-05-23T02:51:13;10.32;;;5.53;;
9364;SDS011;4722;49.340;9.800;2023-05-23T02:53:39;10.93;;;5.82;;
9364;SDS011;4722;49.340;9.800;2023-05-23T02:56:05;13.05;;;6.30;;
9364;SDS011;4722;49.340;9.800;2023-05-23T02:58:32;11.05;;;6.20;;
9364;SDS011;4722;49.340;9.800;2023-05-23T03:01:00;12.73;;;6.97;;
9364;SDS011;4722;49.340;9.800;2023-05-23T03:03:26;10.77;;;6.22;;
9364;SDS011;4722;49.340;9.800;2023-05-23T03:05:53;13.43;;;6.47;;
9364;SDS011;4722;49.340;9.800;2023-05-23T03:08:18;17.52;;;6.57;;
9364;SDS011;4722;49.340;9.800;2023-05-23T03:10:44;11.23;;;6.30;;
9364;SDS011;4722;49.340;9.800;2023-05-23T03:13:10;16.13;;;6.78;;
9364;SDS011;4722;49.340;9.800;2023-05-23T03:15:36;12.93;;;6.43;;
9364;SDS011;4722;49.340;9.800;2023-05-23T03:18:02;10.98;;;6.07;;
9364;SDS011;4722;49.340;9.800;2023-05-23T03:20:28;13.20;;;6.15;;
9364;SDS011;4722;49.340;9.800;2023-05-23T03:22:54;10.57;;;5.93;;
9364;SDS011;4722;49.340;9.800;2023-05-23T03:25:20;10.88;;;6.03;;
9364;SDS011;4722;49.340;9.800;2023-05-23T03:27:46;11.55;;;6.50;;
9364;SDS011;4722;49.340;9.800;2023-05-23T03:30:12;17.27;;;6.95;;
9364;SDS011;4722;49.340;9.800;2023-05-23T03:32:38;16.23;;;6.38;;
9364;SDS011;4722;49.340;9.800;2023-05-23T03:35:04;15.10;;;6.25;;
9364;SDS011;4722;49.340;9.800;2023-05-23T03:37:30;13.88;;;6.22;;
9364;SDS011;4722;49.340;9.800;2023-05-23T03:39:56;10.80;;;6.25;;
9364;SDS011;4722;49.340;9.800;2023-05-23T03:42:22;12.25;;;6.68;;
9364;SDS011;4722;49.340;9.800;2023-05-23T03:44:48;10.50;;;6.57;;
9364;SDS011;4722;49.340;9.800;2023-05-23T03:47:14;11.55;;;6.50;;
9364;SDS011;4722;49.340;9.800;2023-05-23T03:49:40;13.05;;;7.05;;
9364;SDS011;4722;49.340;9.800;2023-05-23T03:52:06;10.18;;;5.60;;
9364;SDS011;4722;49.340;9.800;2023-05-23T03:54:32;12.07;;;6.57;;
9364;SDS011;4722;49.340;9.800;2023-05-23T03:56:58;11.82;;;6.20;;
9364;SDS011;4722;49.340;9.800;2023-05-23T03:59:24;14.43;;;6.85;;
9364;SDS011;4722;49.340;9.800;2023-05-23T04:01:50;13.27;;;7.60;;
9364;SDS011;4722;49.340;9.800;2023-05-23T04:04:16;10.73;;;6.00;;
9364;SDS011;4722;49.340;9.800;2023-05-23T04:06:42;15.10;;;6.82;;
9364;SDS011;4722;49.340;9.800;2023-05-23T04:09:08;14.10;;;6.53;;
9364;SDS011;4722;49.340;9.800;2023-05-23T04:11:34;13.35;;;7.13;;
9364;SDS011;4722;49.340;9.800;2023-05-23T04:14:00;13.18;;;6.60;;
9364;SDS011;4722;49.340;9.800;2023-05-23T04:16:26;11.00;;;5.53;;
9364;SDS011;4722;49.340;9.800;2023-05-23T04:18:56;11.88;;;6.35;;
9364;SDS011;4722;49.340;9.800;2023-05-23T04:21:22;11.93;;;6.20;;
9364;SDS011;4722;49.340;9.800;2023-05-23T04:23:48;12.35;;;6.70;;
9364;SDS011;4722;49.340;9.800;2023-05-23T04:26:14;9.70;;;5.38;;
9364;SDS011;4722;49.340;9.800;2023-05-23T04:28:40;14.75;;;7.53;;
9364;SDS011;4722;49.340;9.800;2023-05-23T04:31:10;12.60;;;5.95;;
9364;SDS011;4722;49.340;9.800;2023-05-23T04:33:36;13.18;;;6.30;;
9364;SDS011;4722;49.340;9.800;2023-05-23T04:36:03;14.95;;;7.30;;
9364;SDS011;4722;49.340;9.800;2023-05-23T04:38:29;9.48;;;5.95;;
9364;SDS011;4722;49.340;9.800;2023-05-23T04:40:56;14.77;;;6.72;;
9364;SDS011;4722;49.340;9.800;2023-05-23T04:43:22;9.75;;;5.72;;
9364;SDS011;4722;49.340;9.800;2023-05-23T04:45:50;13.13;;;6.38;;
9364;SDS011;4722;49.340;9.800;2023-05-23T04:48:18;17.27;;;7.10;;
9364;SDS011;4722;49.340;9.800;2023-05-23T04:50:47;11.30;;;6.47;;
9364;SDS011;4722;49.340;9.800;2023-05-23T04:53:15;11.98;;;5.88;;
9364;SDS011;4722;49.340;9.800;2023-05-23T04:55:41;14.73;;;6.85;;
9364;SDS011;4722;49.340;9.800;2023-05-23T04:58:07;11.77;;;7.57;;
9364;SDS011;4722;49.340;9.800;2023-05-23T05:00:33;11.10;;;6.00;;
9364;SDS011;4722;49.340;9.800;2023-05-23T05:03:00;12.77;;;7.53;;
9364;SDS011;4722;49.340;9.800;2023-05-23T05:05:26;13.38;;;6.80;;
9364;SDS011;4722;49.340;9.800;2023-05-23T05:07:52;10.85;;;6.55;;
9364;SDS011;4722;49.340;9.800;2023-05-23T05:10:18;11.93;;;6.63;;
9364;SDS011;4722;49.340;9.800;2023-05-23T05:12:45;13.00;;;7.22;;
9364;SDS011;4722;49.340;9.800;2023-05-23T05:15:13;11.35;;;6.88;;
9364;SDS011;4722;49.340;9.800;2023-05-23T05:17:39;19.90;;;7.00;;
9364;SDS011;4722;49.340;9.800;2023-05-23T05:20:06;12.35;;;6.63;;
9364;SDS011;4722;49.340;9.800;2023-05-23T05:22:33;11.27;;;6.78;;
9364;SDS011;4722;49.340;9.800;2023-05-23T05:25:00;10.82;;;6.28;;
9364;SDS011;4722;49.340;9.800;2023-05-23T05:27:27;12.10;;;6.15;;
9364;SDS011;4722;49.340;9.800;2023-05-23T05:29:53;11.30;;;6.82;;
9364;SDS011;4722;49.340;9.800;2023-05-23T05:32:22;13.23;;;6.90;;
9364;SDS011;4722;49.340;9.800;2023-05-23T05:34:48;10.95;;;6.32;;
9364;SDS011;4722;49.340;9.800;2023-05-23T05:37:14;11.48;;;6.97;;
9364;SDS011;4722;49.340;9.800;2023-05-23T05:39:40;15.88;;;7.63;;
9364;SDS011;4722;49.340;9.800;2023-05-23T05:42:06;13.77;;;7.43;;
9364;SDS011;4722;49.340;9.800;2023-05-23T05:44:32;15.70;;;8.10;;
9364;SDS011;4722;49.340;9.800;2023-05-23T05:46:58;13.13;;;7.35;;
9364;SDS011;4722;49.340;9.800;2023-05-23T05:49:24;12.07;;;6.80;;
9364;SDS011;4722;49.340;9.800;2023-05-23T05:51:50;12.18;;;6.97;;
9364;SDS011;4722;49.340;9.800;2023-05-23T05:54:16;12.38;;;6.90;;
9364;SDS011;4722;49.340;9.800;2023-05-23T05:56:42;19.42;;;9.75;;
9364;SDS011;4722;49.340;9.800;2023-05-23T05:59:08;18.45;;;8.02;;
9364;SDS011;4722;49.340;9.800;2023-05-23T06:01:35;15.02;;;7.45;;
9364;SDS011;4722;49.340;9.800;2023-05-23T06:04:01;18.73;;;8.07;;
9364;SDS011;4722;49.340;9.800;2023-05-23T06:06:27;18.52;;;8.82;;
9364;SDS011;4722;49.340;9.800;2023-05-23T06:08:53;16.02;;;8.15;;
9364;SDS011;4722;49.340;9.800;2023-05-23T06:11:19;16.67;;;9.20;;
9364;SDS011;4722;49.340;9.800;2023-05-23T06:13:45;17.05;;;8.85;;
9364;SDS011;4722;49.340;9.800;2023-05-23T06:16:11;20.90;;;9.10;;
9364;SDS011;4722;49.340;9.800;2023-05-23T06:18:39;18.95;;;9.20;;
9364;SDS011;4722;49.340;9.800;2023-05-23T06:21:05;16.08;;;8.98;;
9364;SDS011;4722;49.340;9.800;2023-05-23T06:23:31;17.00;;;10.35;;
9364;SDS011;4722;49.340;9.800;2023-05-23T06:25:57;17.55;;;9.55;;
9364;SDS011;4722;49.340;9.800;2023-05-23T06:28:23;17.90;;;10.60;;
9364;SDS011;4722;49.340;9.800;2023-05-23T06:30:49;19.63;;;10.35;;
9364;SDS011;4722;49.340;9.800;2023-05-23T06:33:15;20.08;;;9.13;;
9364;SDS011;4722;49.340;9.800;2023-05-23T06:35:41;18.10;;;10.65;;
9364;SDS011;4722;49.340;9.800;2023-05-23T06:38:07;16.92;;;9.95;;
9364;SDS011;4722;49.340;9.800;2023-05-23T06:40:33;19.38;;;10.80;;
9364;SDS011;4722;49.340;9.800;2023-05-23T06:42:59;20.25;;;9.70;;
9364;SDS011;4722;49.340;9.800;2023-05-23T06:45:25;15.30;;;8.27;;
9364;SDS011;4722;49.340;9.800;2023-05-23T06:47:51;12.55;;;7.82;;
9364;SDS011;4722;49.340;9.800;2023-05-23T06:50:17;11.77;;;6.95;;
9364;SDS011;4722;49.340;9.800;2023-05-23T06:52:46;13.27;;;8.10;;
9364;SDS011;4722;49.340;9.800;2023-05-23T06:55:12;13.15;;;7.60;;
9364;SDS011;4722;49.340;9.800;2023-05-23T06:57:42;16.95;;;6.82;;
9364;SDS011;4722;49.340;9.800;2023-05-23T07:00:08;14.95;;;7.72;;
9364;SDS011;4722;49.340;9.800;2023-05-23T07:02:35;13.18;;;7.20;;
9364;SDS011;4722;49.340;9.800;2023-05-23T07:05:01;10.18;;;6.43;;
9364;SDS011;4722;49.340;9.800;2023-05-23T07:07:27;14.15;;;7.05;;
9364;SDS011;4722;49.340;9.800;2023-05-23T07:09:53;12.30;;;7.05;;
9364;SDS011;4722;49.340;9.800;2023-05-23T07:12:19;14.43;;;7.65;;
9364;SDS011;4722;49.340;9.800;2023-05-23T07:14:45;17.50;;;8.55;;
9364;SDS011;4722;49.340;9.800;2023-05-23T07:17:11;16.10;;;8.32;;
9364;SDS011;4722;49.340;9.800;2023-05-23T07:19:37;11.95;;;7.00;;
9364;SDS011;4722;49.340;9.800;2023-05-23T07:22:03;12.15;;;6.85;;
9364;SDS011;4722;49.340;9.800;2023-05-23T07:24:29;18.48;;;8.18;;
9364;SDS011;4722;49.340;9.800;2023-05-23T07:26:55;12.65;;;8.25;;
9364;SDS011;4722;49.340;9.800;2023-05-23T07:29:21;12.50;;;7.32;;
9364;SDS011;4722;49.340;9.800;2023-05-23T07:31:47;12.35;;;7.53;;
9364;SDS011;4722;49.340;9.800;2023-05-23T07:34:13;11.30;;;6.40;;
9364;SDS011;4722;49.340;9.800;2023-05-23T07:36:39;15.85;;;6.95;;
9364;SDS011;4722;49.340;9.800;2023-05-23T07:39:06;11.43;;;7.18;;
9364;SDS011;4722;49.340;9.800;2023-05-23T07:41:32;10.82;;;6.30;;
9364;SDS011;4722;49.340;9.800;2023-05-23T07:43:58;10.13;;;6.00;;
9364;SDS011;4722;49.340;9.800;2023-05-23T07:46:24;9.15;;;5.35;;
9364;SDS011;4722;49.340;9.800;2023-05-23T07:48:50;12.50;;;5.53;;
9364;SDS011;4722;49.340;9.800;2023-05-23T07:51:16;7.50;;;4.78;;
9364;SDS011;4722;49.340;9.800;2023-05-23T07:53:45;11.00;;;5.57;;
9364;SDS011;4722;49.340;9.800;2023-05-23T07:56:11;10.70;;;4.93;;
9364;SDS011;4722;49.340;9.800;2023-05-23T07:58:37;9.75;;;5.15;;
9364;SDS011;4722;49.340;9.800;2023-05-23T08:01:03;8.13;;;4.18;;
9364;SDS011;4722;49.340;9.800;2023-05-23T08:03:29;11.10;;;5.18;;
9364;SDS011;4722;49.340;9.800;2023-05-23T08:05:56;10.93;;;4.90;;
9364;SDS011;4722;49.340;9.800;2023-05-23T08:08:22;7.13;;;4.47;;
9364;SDS011;4722;49.340;9.800;2023-05-23T08:10:48;7.38;;;4.07;;
9364;SDS011;4722;49.340;9.800;2023-05-23T08:13:14;10.95;;;5.35;;
9364;SDS011;4722;49.340;9.800;2023-05-23T08:15:40;9.77;;;5.63;;
9364;SDS011;4722;49.340;9.800;2023-05-23T08:18:06;8.90;;;4.35;;
9364;SDS011;4722;49.340;9.800;2023-05-23T08:20:32;6.97;;;4.00;;
9364;SDS011;4722;49.340;9.800;2023-05-23T08:22:58;7.13;;;3.95;;
9364;SDS011;4722;49.340;9.800;2023-05-23T08:25:25;7.78;;;4.13;;
9364;SDS011;4722;49.340;9.800;2023-05-23T08:27:58;11.55;;;4.97;;
9364;SDS011;4722;49.340;9.800;2023-05-23T08:30:25;9.50;;;4.38;;
9364;SDS011;4722;49.340;9.800;2023-05-23T08:32:52;14.57;;;5.30;;
9364;SDS011;4722;49.340;9.800;2023-05-23T08:35:19;8.45;;;4.63;;
9364;SDS011;4722;49.340;9.800;2023-05-23T08:37:45;7.70;;;4.05;;
9364;SDS011;4722;49.340;9.800;2023-05-23T08:40:20;7.72;;;4.45;;
9364;SDS011;4722;49.340;9.800;2023-05-23T08:42:47;7.38;;;4.22;;
9364;SDS011;4722;49.340;9.800;2023-05-23T08:45:13;7.65;;;4.32;;
9364;SDS011;4722;49.340;9.800;2023-05-23T08:47:43;7.10;;;4.18;;
9364;SDS011;4722;49.340;9.800;2023-05-23T08:50:13;7.88;;;4.07;;
9364;SDS011;4722;49.340;9.800;2023-05-23T08:52:53;7.35;;;3.75;;
9364;SDS011;4722;49.340;9.800;2023-05-23T08:55:20;10.85;;;4.82;;
9364;SDS011;4722;49.340;9.800;2023-05-23T08:57:50;9.93;;;4.43;;
9364;SDS011;4722;49.340;9.800;2023-05-23T09:00:16;14.65;;;4.45;;
9364;SDS011;4722;49.340;9.800;2023-05-23T09:02:43;9.45;;;5.00;;
9364;SDS011;4722;49.340;9.800;2023-05-23T09:05:10;7.75;;;4.63;;
9364;SDS011;4722;49.340;9.800;2023-05-23T09:07:36;9.07;;;5.15;;
9364;SDS011;4722;49.340;9.800;2023-05-23T09:10:02;8.73;;;4.13;;
9364;SDS011;4722;49.340;9.800;2023-05-23T09:12:29;10.13;;;5.53;;
9364;SDS011;4722;49.340;9.800;2023-05-23T09:14:57;11.70;;;4.65;;
9364;SDS011;4722;49.340;9.800;2023-05-23T09:17:23;7.45;;;4.18;;
9364;SDS011;4722;49.340;9.800;2023-05-23T09:19:49;7.68;;;4.72;;
9364;SDS011;4722;49.340;9.800;2023-05-23T09:22:15;10.63;;;5.50;;
9364;SDS011;4722;49.340;9.800;2023-05-23T09:24:41;10.02;;;5.25;;
9364;SDS011;4722;49.340;9.800;2023-05-23T09:27:08;10.77;;;5.53;;
9364;SDS011;4722;49.340;9.800;2023-05-23T09:29:37;9.07;;;5.07;;
9364;SDS011;4722;49.340;9.800;2023-05-23T09:32:11;9.73;;;4.93;;
9364;SDS011;4722;49.340;9.800;2023-05-23T09:37:20;8.73;;;4.20;;
9364;SDS011;4722;49.340;9.800;2023-05-23T09:39:49;14.98;;;6.22;;
9364;SDS011;4722;49.340;9.800;2023-05-23T09:42:24;17.42;;;7.65;;
9364;SDS011;4722;49.340;9.800;2023-05-23T09:44:50;10.20;;;3.55;;
9364;SDS011;4722;49.340;9.800;2023-05-23T09:47:16;5.55;;;3.40;;
9364;SDS011;4722;49.340;9.800;2023-05-23T09:49:42;5.72;;;3.42;;
9364;SDS011;4722;49.340;9.800;2023-05-23T09:52:09;7.00;;;3.67;;
9364;SDS011;4722;49.340;9.800;2023-05-23T09:54:35;7.90;;;4.00;;
9364;SDS011;4722;49.340;9.800;2023-05-23T09:57:01;5.60;;;2.55;;
9364;SDS011;4722;49.340;9.800;2023-05-23T09:59:28;7.43;;;3.33;;
9364;SDS011;4722;49.340;9.800;2023-05-23T10:01:56;7.95;;;3.83;;
9364;SDS011;4722;49.340;9.800;2023-05-23T10:04:22;7.80;;;4.60;;
9364;SDS011;4722;49.340;9.800;2023-05-23T10:06:50;7.47;;;4.00;;
9364;SDS011;4722;49.340;9.800;2023-05-23T10:09:18;8.10;;;4.55;;
9364;SDS011;4722;49.340;9.800;2023-05-23T10:14:13;7.35;;;3.20;;
9364;SDS011;4722;49.340;9.800;2023-05-23T10:19:18;6.00;;;2.70;;
9364;SDS011;4722;49.340;9.800;2023-05-23T10:21:48;4.68;;;2.38;;
9364;SDS011;4722;49.340;9.800;2023-05-23T10:24:15;5.45;;;2.42;;
9364;SDS011;4722;49.340;9.800;2023-05-23T10:26:42;4.00;;;2.13;;
9364;SDS011;4722;49.340;9.800;2023-05-23T10:29:08;4.68;;;2.20;;
9364;SDS011;4722;49.340;9.800;2023-05-23T10:31:34;3.17;;;1.75;;
9364;SDS011;4722;49.340;9.800;2023-05-23T10:34:07;6.22;;;1.63;;
9364;SDS011;4722;49.340;9.800;2023-05-23T10:36:47;3.38;;;1.58;;
9364;SDS011;4722;49.340;9.800;2023-05-23T10:39:29;2.67;;;1.42;;
9364;SDS011;4722;49.340;9.800;2023-05-23T10:42:08;2.60;;;1.20;;
9364;SDS011;4722;49.340;9.800;2023-05-23T10:44:43;2.25;;;1.02;;
9364;SDS011;4722;49.340;9.800;2023-05-23T10:47:09;2.08;;;1.23;;
9364;SDS011;4722;49.340;9.800;2023-05-23T10:49:40;3.03;;;1.38;;
9364;SDS011;4722;49.340;9.800;2023-05-23T10:52:07;2.28;;;1.23;;
9364;SDS011;4722;49.340;9.800;2023-05-23T10:54:52;3.13;;;1.27;;
9364;SDS011;4722;49.340;9.800;2023-05-23T10:57:19;3.60;;;1.33;;
9364;SDS011;4722;49.340;9.800;2023-05-23T10:59:46;2.45;;;1.35;;
9364;SDS011;4722;49.340;9.800;2023-05-23T11:02:15;2.28;;;1.08;;
9364;SDS011;4722;49.340;9.800;2023-05-23T11:04:41;1.67;;;1.05;;
9364;SDS011;4722;49.340;9.800;2023-05-23T11:07:27;2.95;;;0.95;;
9364;SDS011;4722;49.340;9.800;2023-05-23T11:12:39;2.53;;;1.08;;
9364;SDS011;4722;49.340;9.800;2023-05-23T11:17:57;1.55;;;0.82;;
9364;SDS011;4722;49.340;9.800;2023-05-23T11:20:23;4.53;;;1.08;;
9364;SDS011;4722;49.340;9.800;2023-05-23T11:22:52;2.35;;;0.93;;
9364;SDS011;4722;49.340;9.800;2023-05-23T11:25:19;3.95;;;1.02;;
9364;SDS011;4722;49.340;9.800;2023-05-23T11:30:14;2.47;;;0.95;;
9364;SDS011;4722;49.340;9.800;2023-05-23T11:52:33;2.28;;;1.23;;
9364;SDS011;4722;49.340;9.800;2023-05-23T11:54:59;1.58;;;0.82;;
9364;SDS011;4722;49.340;9.800;2023-05-23T11:57:26;2.85;;;1.45;;
9364;SDS011;4722;49.340;9.800;2023-05-23T13:56:58;3.40;;;1.80;;
9364;SDS011;4722;49.340;9.800;2023-05-23T13:59:25;2.65;;;1.60;;
9364;SDS011;4722;49.340;9.800;2023-05-23T14:01:52;7.75;;;1.13;;
9364;SDS011;4722;49.340;9.800;2023-05-23T14:04:18;2.53;;;1.30;;
9364;SDS011;4722;49.340;9.800;2023-05-23T14:06:44;3.58;;;1.30;;
9364;SDS011;4722;49.340;9.800;2023-05-23T14:09:10;2.42;;;1.20;;
9364;SDS011;4722;49.340;9.800;2023-05-23T14:11:36;1.85;;;1.25;;
9364;SDS011;4722;49.340;9.800;2023-05-23T14:14:02;3.40;;;1.13;;
9364;SDS011;4722;49.340;9.800;2023-05-23T14:16:28;1.23;;;0.98;;
9364;SDS011;4722;49.340;9.800;2023-05-23T14:18:54;3.85;;;1.40;;
9364;SDS011;4722;49.340;9.800;2023-05-23T14:21:20;1.48;;;0.90;;
